sensor_id;sensor_type;location;lat;lon;timestamp;P1;durP1;ratioP1;P2;durP2;ratioP2
42906;SDS011;28552;51.146;6.576;2022-07-29T00:01:53;2.65;;;0.93;;
42906;SDS011;28552;51.146;6.576;2022-07-29T00:04:54;1.63;;;0.70;;
42906;SDS011;28552;51.146;6.576;2022-07-29T00:07:55;2.58;;;0.70;;
42906;SDS011;28552;51.146;6.576;2022-07-29T00:10:55;2.90;;;0.70;;
42906;SDS011;28552;51.146;6.576;2022-07-29T00:13:56;1.85;;;0.70;;
42906;SDS011;28552;51.146;6.576;2022-07-29T00:16:56;2.15;;;0.70;;
42906;SDS011;28552;51.146;6.576;2022-07-29T00:19:57;2.83;;;0.85;;
42906;SDS011;28552;51.146;6.576;2022-07-29T00:22:57;3.20;;;1.02;;
42906;SDS011;28552;51.146;6.576;2022-07-29T00:25:58;2.65;;;1.30;;
42906;SDS011;28552;51.146;6.576;2022-07-29T00:28:59;2.97;;;0.77;;
42906;SDS011;28552;51.146;6.576;2022-07-29T00:32:01;2.22;;;0.98;;
42906;SDS011;28552;51.146;6.576;2022-07-29T00:35:02;4.30;;;1.40;;
42906;SDS011;28552;51.146;6.576;2022-07-29T00:38:19;1.77;;;0.90;;
42906;SDS011;28552;51.146;6.576;2022-07-29T00:41:20;3.22;;;0.90;;
42906;SDS011;28552;51.146;6.576;2022-07-29T00:44:21;2.70;;;0.80;;
42906;SDS011;28552;51.146;6.576;2022-07-29T00:47:21;3.00;;;0.75;;
42906;SDS011;28552;51.146;6.576;2022-07-29T00:50:22;1.70;;;0.80;;
42906;SDS011;28552;51.146;6.576;2022-07-29T00:53:23;4.00;;;1.10;;
42906;SDS011;28552;51.146;6.576;2022-07-29T00:56:24;2.72;;;0.90;;
42906;SDS011;28552;51.146;6.576;2022-07-29T00:59:26;2.03;;;0.80;;
42906;SDS011;28552;51.146;6.576;2022-07-29T01:02:26;2.80;;;0.93;;
42906;SDS011;28552;51.146;6.576;2022-07-29T01:05:27;2.42;;;1.05;;
42906;SDS011;28552;51.146;6.576;2022-07-29T01:08:29;3.25;;;0.93;;
42906;SDS011;28552;51.146;6.576;2022-07-29T01:11:31;1.90;;;0.85;;
42906;SDS011;28552;51.146;6.576;2022-07-29T01:14:32;2.00;;;0.80;;
42906;SDS011;28552;51.146;6.576;2022-07-29T01:24:11;2.15;;;0.80;;
42906;SDS011;28552;51.146;6.576;2022-07-29T01:30:44;4.90;;;0.85;;
42906;SDS011;28552;51.146;6.576;2022-07-29T01:33:50;3.10;;;0.90;;
42906;SDS011;28552;51.146;6.576;2022-07-29T01:37:01;7.07;;;0.90;;
42906;SDS011;28552;51.146;6.576;2022-07-29T01:40:22;1.83;;;0.70;;
42906;SDS011;28552;51.146;6.576;2022-07-29T01:43:27;2.35;;;0.85;;
42906;SDS011;28552;51.146;6.576;2022-07-29T01:46:37;3.40;;;0.80;;
42906;SDS011;28552;51.146;6.576;2022-07-29T01:49:43;2.47;;;0.80;;
42906;SDS011;28552;51.146;6.576;2022-07-29T01:52:52;4.03;;;0.87;;
42906;SDS011;28552;51.146;6.576;2022-07-29T01:55:56;3.42;;;0.85;;
42906;SDS011;28552;51.146;6.576;2022-07-29T01:59:00;3.30;;;0.90;;
42906;SDS011;28552;51.146;6.576;2022-07-29T02:02:03;5.07;;;1.10;;
42906;SDS011;28552;51.146;6.576;2022-07-29T02:05:08;3.65;;;0.82;;
42906;SDS011;28552;51.146;6.576;2022-07-29T02:08:12;1.92;;;0.85;;
42906;SDS011;28552;51.146;6.576;2022-07-29T02:11:14;3.25;;;0.77;;
42906;SDS011;28552;51.146;6.576;2022-07-29T02:14:16;5.57;;;0.93;;
42906;SDS011;28552;51.146;6.576;2022-07-29T02:17:23;3.42;;;0.90;;
42906;SDS011;28552;51.146;6.576;2022-07-29T02:20:27;2.70;;;1.00;;
42906;SDS011;28552;51.146;6.576;2022-07-29T02:23:28;4.53;;;1.23;;
42906;SDS011;28552;51.146;6.576;2022-07-29T02:26:32;2.88;;;0.80;;
42906;SDS011;28552;51.146;6.576;2022-07-29T02:29:34;5.97;;;1.40;;
42906;SDS011;28552;51.146;6.576;2022-07-29T02:32:37;3.53;;;1.58;;
42906;SDS011;28552;51.146;6.576;2022-07-29T02:35:40;3.25;;;1.20;;
42906;SDS011;28552;51.146;6.576;2022-07-29T02:38:43;3.10;;;1.20;;
42906;SDS011;28552;51.146;6.576;2022-07-29T02:41:52;5.93;;;1.20;;
42906;SDS011;28552;51.146;6.576;2022-07-29T02:44:59;5.38;;;1.27;;
42906;SDS011;28552;51.146;6.576;2022-07-29T02:47:59;5.60;;;1.20;;
42906;SDS011;28552;51.146;6.576;2022-07-29T02:51:07;4.22;;;1.30;;
42906;SDS011;28552;51.146;6.576;2022-07-29T02:54:11;6.20;;;1.25;;
42906;SDS011;28552;51.146;6.576;2022-07-29T02:57:21;2.95;;;1.25;;
42906;SDS011;28552;51.146;6.576;2022-07-29T03:00:29;4.82;;;1.60;;
42906;SDS011;28552;51.146;6.576;2022-07-29T03:03:35;3.33;;;1.20;;
42906;SDS011;28552;51.146;6.576;2022-07-29T03:06:38;5.93;;;1.20;;
42906;SDS011;28552;51.146;6.576;2022-07-29T03:09:41;5.82;;;1.23;;
42906;SDS011;28552;51.146;6.576;2022-07-29T03:12:42;4.15;;;1.50;;
42906;SDS011;28552;51.146;6.576;2022-07-29T03:15:44;3.55;;;1.10;;
42906;SDS011;28552;51.146;6.576;2022-07-29T03:18:45;5.85;;;1.60;;
42906;SDS011;28552;51.146;6.576;2022-07-29T03:21:47;3.55;;;1.38;;
42906;SDS011;28552;51.146;6.576;2022-07-29T03:24:47;3.38;;;1.27;;
42906;SDS011;28552;51.146;6.576;2022-07-29T03:27:48;4.30;;;1.10;;
42906;SDS011;28552;51.146;6.576;2022-07-29T03:30:49;2.55;;;1.10;;
42906;SDS011;28552;51.146;6.576;2022-07-29T03:33:49;3.40;;;1.40;;
42906;SDS011;28552;51.146;6.576;2022-07-29T03:36:50;3.28;;;1.35;;
42906;SDS011;28552;51.146;6.576;2022-07-29T03:39:50;4.85;;;1.27;;
42906;SDS011;28552;51.146;6.576;2022-07-29T03:42:54;5.40;;;1.20;;
42906;SDS011;28552;51.146;6.576;2022-07-29T03:45:56;4.78;;;1.50;;
42906;SDS011;28552;51.146;6.576;2022-07-29T03:49:00;3.35;;;1.15;;
42906;SDS011;28552;51.146;6.576;2022-07-29T03:52:03;3.50;;;1.60;;
42906;SDS011;28552;51.146;6.576;2022-07-29T03:55:05;3.20;;;1.42;;
42906;SDS011;28552;51.146;6.576;2022-07-29T03:58:06;5.70;;;1.50;;
42906;SDS011;28552;51.146;6.576;2022-07-29T04:01:08;4.50;;;1.50;;
42906;SDS011;28552;51.146;6.576;2022-07-29T04:04:09;4.93;;;1.40;;
42906;SDS011;28552;51.146;6.576;2022-07-29T04:07:12;4.32;;;1.67;;
42906;SDS011;28552;51.146;6.576;2022-07-29T04:10:13;6.63;;;1.65;;
42906;SDS011;28552;51.146;6.576;2022-07-29T04:13:16;3.60;;;1.38;;
42906;SDS011;28552;51.146;6.576;2022-07-29T04:16:18;4.18;;;1.33;;
42906;SDS011;28552;51.146;6.576;2022-07-29T04:19:18;8.52;;;1.60;;
42906;SDS011;28552;51.146;6.576;2022-07-29T04:22:19;5.95;;;1.67;;
42906;SDS011;28552;51.146;6.576;2022-07-29T04:25:20;6.90;;;1.80;;
42906;SDS011;28552;51.146;6.576;2022-07-29T04:28:20;4.03;;;1.20;;
42906;SDS011;28552;51.146;6.576;2022-07-29T04:31:21;3.78;;;1.55;;
42906;SDS011;28552;51.146;6.576;2022-07-29T04:34:21;3.78;;;1.60;;
42906;SDS011;28552;51.146;6.576;2022-07-29T04:37:22;4.95;;;1.85;;
42906;SDS011;28552;51.146;6.576;2022-07-29T04:40:22;3.47;;;1.30;;
42906;SDS011;28552;51.146;6.576;2022-07-29T04:43:23;3.10;;;1.33;;
42906;SDS011;28552;51.146;6.576;2022-07-29T04:46:24;4.20;;;1.40;;
42906;SDS011;28552;51.146;6.576;2022-07-29T04:49:24;5.60;;;1.70;;
42906;SDS011;28552;51.146;6.576;2022-07-29T04:52:25;4.28;;;1.60;;
42906;SDS011;28552;51.146;6.576;2022-07-29T04:55:26;3.47;;;1.25;;
42906;SDS011;28552;51.146;6.576;2022-07-29T04:58:26;4.20;;;1.42;;
42906;SDS011;28552;51.146;6.576;2022-07-29T05:01:27;7.10;;;1.42;;
42906;SDS011;28552;51.146;6.576;2022-07-29T05:04:28;5.63;;;1.75;;
42906;SDS011;28552;51.146;6.576;2022-07-29T05:07:28;4.75;;;1.65;;
42906;SDS011;28552;51.146;6.576;2022-07-29T05:10:29;3.58;;;1.40;;
42906;SDS011;28552;51.146;6.576;2022-07-29T05:13:29;3.95;;;1.35;;
42906;SDS011;28552;51.146;6.576;2022-07-29T05:16:30;3.40;;;1.40;;
42906;SDS011;28552;51.146;6.576;2022-07-29T05:19:30;4.25;;;1.50;;
42906;SDS011;28552;51.146;6.576;2022-07-29T05:22:31;4.32;;;1.50;;
42906;SDS011;28552;51.146;6.576;2022-07-29T05:25:32;4.40;;;1.75;;
42906;SDS011;28552;51.146;6.576;2022-07-29T05:28:33;4.20;;;1.50;;
42906;SDS011;28552;51.146;6.576;2022-07-29T05:31:34;3.47;;;1.67;;
42906;SDS011;28552;51.146;6.576;2022-07-29T05:34:35;4.60;;;1.67;;
42906;SDS011;28552;51.146;6.576;2022-07-29T05:37:36;6.38;;;2.28;;
42906;SDS011;28552;51.146;6.576;2022-07-29T05:40:36;4.13;;;1.50;;
42906;SDS011;28552;51.146;6.576;2022-07-29T05:43:37;7.38;;;1.80;;
42906;SDS011;28552;51.146;6.576;2022-07-29T05:46:37;6.18;;;2.28;;
42906;SDS011;28552;51.146;6.576;2022-07-29T05:49:38;5.90;;;2.10;;
42906;SDS011;28552;51.146;6.576;2022-07-29T05:52:38;7.63;;;2.22;;
42906;SDS011;28552;51.146;6.576;2022-07-29T05:55:39;7.45;;;1.88;;
42906;SDS011;28552;51.146;6.576;2022-07-29T05:58:39;6.30;;;1.92;;
42906;SDS011;28552;51.146;6.576;2022-07-29T06:01:40;4.43;;;1.73;;
42906;SDS011;28552;51.146;6.576;2022-07-29T06:04:41;4.63;;;1.88;;
42906;SDS011;28552;51.146;6.576;2022-07-29T06:07:42;7.97;;;2.92;;
42906;SDS011;28552;51.146;6.576;2022-07-29T06:10:42;7.53;;;2.20;;
42906;SDS011;28552;51.146;6.576;2022-07-29T06:13:43;9.93;;;2.17;;
42906;SDS011;28552;51.146;6.576;2022-07-29T06:16:44;5.53;;;2.00;;
42906;SDS011;28552;51.146;6.576;2022-07-29T06:19:45;7.30;;;1.95;;
42906;SDS011;28552;51.146;6.576;2022-07-29T06:22:46;5.88;;;2.10;;
42906;SDS011;28552;51.146;6.576;2022-07-29T06:25:46;6.30;;;1.95;;
42906;SDS011;28552;51.146;6.576;2022-07-29T06:28:47;5.05;;;1.88;;
42906;SDS011;28552;51.146;6.576;2022-07-29T06:31:48;7.25;;;1.88;;
42906;SDS011;28552;51.146;6.576;2022-07-29T06:34:48;5.22;;;2.03;;
42906;SDS011;28552;51.146;6.576;2022-07-29T06:37:49;6.65;;;1.95;;
42906;SDS011;28552;51.146;6.576;2022-07-29T06:40:49;6.60;;;2.45;;
42906;SDS011;28552;51.146;6.576;2022-07-29T06:44:05;7.55;;;2.35;;
42906;SDS011;28552;51.146;6.576;2022-07-29T06:47:05;4.90;;;1.90;;
42906;SDS011;28552;51.146;6.576;2022-07-29T06:50:06;9.07;;;1.98;;
42906;SDS011;28552;51.146;6.576;2022-07-29T06:53:11;5.53;;;2.25;;
42906;SDS011;28552;51.146;6.576;2022-07-29T06:56:11;9.40;;;2.20;;
42906;SDS011;28552;51.146;6.576;2022-07-29T06:59:13;7.22;;;2.53;;
42906;SDS011;28552;51.146;6.576;2022-07-29T07:02:14;5.25;;;2.17;;
42906;SDS011;28552;51.146;6.576;2022-07-29T07:05:14;7.85;;;2.63;;
42906;SDS011;28552;51.146;6.576;2022-07-29T07:08:15;5.30;;;1.95;;
42906;SDS011;28552;51.146;6.576;2022-07-29T07:11:16;5.53;;;2.20;;
42906;SDS011;28552;51.146;6.576;2022-07-29T07:14:16;6.43;;;2.35;;
42906;SDS011;28552;51.146;6.576;2022-07-29T07:17:17;6.60;;;2.13;;
42906;SDS011;28552;51.146;6.576;2022-07-29T07:20:17;6.80;;;2.70;;
42906;SDS011;28552;51.146;6.576;2022-07-29T07:23:18;5.82;;;2.50;;
42906;SDS011;28552;51.146;6.576;2022-07-29T07:26:19;4.85;;;2.28;;
42906;SDS011;28552;51.146;6.576;2022-07-29T07:29:20;8.73;;;3.17;;
42906;SDS011;28552;51.146;6.576;2022-07-29T07:32:20;7.88;;;2.67;;
42906;SDS011;28552;51.146;6.576;2022-07-29T07:35:21;7.50;;;2.90;;
42906;SDS011;28552;51.146;6.576;2022-07-29T07:38:21;6.35;;;2.60;;
42906;SDS011;28552;51.146;6.576;2022-07-29T07:41:22;6.53;;;2.58;;
42906;SDS011;28552;51.146;6.576;2022-07-29T07:44:22;7.50;;;2.53;;
42906;SDS011;28552;51.146;6.576;2022-07-29T07:47:23;10.73;;;2.83;;
42906;SDS011;28552;51.146;6.576;2022-07-29T07:50:24;7.95;;;2.72;;
42906;SDS011;28552;51.146;6.576;2022-07-29T07:53:24;5.88;;;2.88;;
42906;SDS011;28552;51.146;6.576;2022-07-29T07:56:25;7.88;;;2.63;;
42906;SDS011;28552;51.146;6.576;2022-07-29T07:59:26;8.98;;;2.70;;
42906;SDS011;28552;51.146;6.576;2022-07-29T08:02:26;7.07;;;2.50;;
42906;SDS011;28552;51.146;6.576;2022-07-29T08:05:27;5.40;;;2.45;;
42906;SDS011;28552;51.146;6.576;2022-07-29T08:08:28;10.48;;;2.78;;
42906;SDS011;28552;51.146;6.576;2022-07-29T08:11:28;5.50;;;2.35;;
42906;SDS011;28552;51.146;6.576;2022-07-29T08:14:29;5.82;;;2.63;;
42906;SDS011;28552;51.146;6.576;2022-07-29T08:17:30;7.32;;;3.10;;
42906;SDS011;28552;51.146;6.576;2022-07-29T08:20:31;7.07;;;2.63;;
42906;SDS011;28552;51.146;6.576;2022-07-29T08:23:33;6.65;;;3.00;;
42906;SDS011;28552;51.146;6.576;2022-07-29T08:26:38;5.22;;;2.30;;
42906;SDS011;28552;51.146;6.576;2022-07-29T08:29:39;7.60;;;2.38;;
42906;SDS011;28552;51.146;6.576;2022-07-29T08:32:40;6.18;;;2.72;;
42906;SDS011;28552;51.146;6.576;2022-07-29T08:35:41;6.00;;;2.70;;
42906;SDS011;28552;51.146;6.576;2022-07-29T08:38:41;7.82;;;2.70;;
42906;SDS011;28552;51.146;6.576;2022-07-29T08:41:42;5.28;;;2.15;;
42906;SDS011;28552;51.146;6.576;2022-07-29T08:44:42;8.93;;;2.20;;
42906;SDS011;28552;51.146;6.576;2022-07-29T08:47:44;5.60;;;2.83;;
42906;SDS011;28552;51.146;6.576;2022-07-29T08:50:45;6.55;;;2.40;;
42906;SDS011;28552;51.146;6.576;2022-07-29T08:53:47;5.55;;;2.58;;
42906;SDS011;28552;51.146;6.576;2022-07-29T08:56:49;7.20;;;2.30;;
42906;SDS011;28552;51.146;6.576;2022-07-29T08:59:51;6.90;;;2.63;;
42906;SDS011;28552;51.146;6.576;2022-07-29T09:02:56;9.30;;;3.30;;
42906;SDS011;28552;51.146;6.576;2022-07-29T09:05:59;5.75;;;2.75;;
42906;SDS011;28552;51.146;6.576;2022-07-29T09:09:00;7.07;;;2.70;;
42906;SDS011;28552;51.146;6.576;2022-07-29T09:12:01;9.75;;;2.58;;
42906;SDS011;28552;51.146;6.576;2022-07-29T09:15:03;5.47;;;2.15;;
42906;SDS011;28552;51.146;6.576;2022-07-29T09:18:04;7.20;;;2.53;;
42906;SDS011;28552;51.146;6.576;2022-07-29T09:21:05;5.55;;;2.28;;
42906;SDS011;28552;51.146;6.576;2022-07-29T09:24:22;6.68;;;2.22;;
42906;SDS011;28552;51.146;6.576;2022-07-29T09:27:24;5.80;;;2.33;;
42906;SDS011;28552;51.146;6.576;2022-07-29T09:30:26;4.82;;;2.28;;
42906;SDS011;28552;51.146;6.576;2022-07-29T09:33:34;5.30;;;2.03;;
42906;SDS011;28552;51.146;6.576;2022-07-29T09:36:43;6.17;;;2.30;;
42906;SDS011;28552;51.146;6.576;2022-07-29T09:39:46;5.38;;;2.42;;
42906;SDS011;28552;51.146;6.576;2022-07-29T09:42:47;7.35;;;2.75;;
42906;SDS011;28552;51.146;6.576;2022-07-29T09:45:48;6.18;;;2.42;;
42906;SDS011;28552;51.146;6.576;2022-07-29T09:52:09;8.25;;;3.08;;
42906;SDS011;28552;51.146;6.576;2022-07-29T09:55:11;7.03;;;2.67;;
42906;SDS011;28552;51.146;6.576;2022-07-29T09:58:17;5.57;;;2.60;;
42906;SDS011;28552;51.146;6.576;2022-07-29T10:01:27;6.35;;;2.67;;
42906;SDS011;28552;51.146;6.576;2022-07-29T10:07:45;6.90;;;2.88;;
42906;SDS011;28552;51.146;6.576;2022-07-29T10:10:47;5.43;;;2.33;;
42906;SDS011;28552;51.146;6.576;2022-07-29T10:13:48;5.50;;;2.17;;
42906;SDS011;28552;51.146;6.576;2022-07-29T10:16:48;7.55;;;2.50;;
42906;SDS011;28552;51.146;6.576;2022-07-29T10:19:49;5.50;;;2.42;;
42906;SDS011;28552;51.146;6.576;2022-07-29T10:22:50;5.53;;;2.92;;
42906;SDS011;28552;51.146;6.576;2022-07-29T10:25:51;6.22;;;2.75;;
42906;SDS011;28552;51.146;6.576;2022-07-29T10:28:51;8.88;;;2.80;;
42906;SDS011;28552;51.146;6.576;2022-07-29T10:35:40;6.22;;;2.33;;
42906;SDS011;28552;51.146;6.576;2022-07-29T10:41:50;4.05;;;2.15;;
42906;SDS011;28552;51.146;6.576;2022-07-29T10:45:02;4.95;;;2.35;;
42906;SDS011;28552;51.146;6.576;2022-07-29T10:48:04;5.63;;;2.75;;
42906;SDS011;28552;51.146;6.576;2022-07-29T10:51:06;6.80;;;2.80;;
42906;SDS011;28552;51.146;6.576;2022-07-29T10:54:08;5.43;;;2.47;;
42906;SDS011;28552;51.146;6.576;2022-07-29T10:57:14;8.55;;;2.95;;
42906;SDS011;28552;51.146;6.576;2022-07-29T11:07:18;6.60;;;3.03;;
42906;SDS011;28552;51.146;6.576;2022-07-29T11:16:59;7.38;;;3.10;;
42906;SDS011;28552;51.146;6.576;2022-07-29T11:23:33;6.63;;;3.05;;
42906;SDS011;28552;51.146;6.576;2022-07-29T11:26:35;7.20;;;3.33;;
42906;SDS011;28552;51.146;6.576;2022-07-29T11:29:38;6.30;;;3.03;;
42906;SDS011;28552;51.146;6.576;2022-07-29T11:32:47;6.68;;;2.80;;
42906;SDS011;28552;51.146;6.576;2022-07-29T11:36:06;6.25;;;3.13;;
42906;SDS011;28552;51.146;6.576;2022-07-29T11:45:26;6.82;;;2.80;;
42906;SDS011;28552;51.146;6.576;2022-07-29T11:48:46;6.00;;;2.45;;
42906;SDS011;28552;51.146;6.576;2022-07-29T11:51:54;7.85;;;3.05;;
42906;SDS011;28552;51.146;6.576;2022-07-29T11:57:58;4.97;;;2.20;;
42906;SDS011;28552;51.146;6.576;2022-07-29T12:01:00;10.23;;;3.03;;
42906;SDS011;28552;51.146;6.576;2022-07-29T12:04:02;5.70;;;2.53;;
42906;SDS011;28552;51.146;6.576;2022-07-29T12:07:04;5.43;;;2.03;;
42906;SDS011;28552;51.146;6.576;2022-07-29T12:10:05;5.55;;;2.58;;
42906;SDS011;28552;51.146;6.576;2022-07-29T12:13:07;9.07;;;3.38;;
42906;SDS011;28552;51.146;6.576;2022-07-29T12:16:08;5.80;;;2.42;;
42906;SDS011;28552;51.146;6.576;2022-07-29T12:19:08;5.97;;;2.60;;
42906;SDS011;28552;51.146;6.576;2022-07-29T12:22:09;7.40;;;3.40;;
42906;SDS011;28552;51.146;6.576;2022-07-29T12:25:11;6.55;;;2.80;;
42906;SDS011;28552;51.146;6.576;2022-07-29T12:28:14;5.15;;;2.45;;
42906;SDS011;28552;51.146;6.576;2022-07-29T12:31:18;6.40;;;3.05;;
42906;SDS011;28552;51.146;6.576;2022-07-29T12:34:19;5.95;;;2.60;;
42906;SDS011;28552;51.146;6.576;2022-07-29T12:37:22;5.90;;;2.58;;
42906;SDS011;28552;51.146;6.576;2022-07-29T12:40:22;6.85;;;2.47;;
42906;SDS011;28552;51.146;6.576;2022-07-29T12:43:24;6.60;;;2.65;;
42906;SDS011;28552;51.146;6.576;2022-07-29T12:46:25;6.20;;;2.75;;
42906;SDS011;28552;51.146;6.576;2022-07-29T12:49:26;6.97;;;2.75;;
42906;SDS011;28552;51.146;6.576;2022-07-29T12:52:30;5.75;;;2.33;;
42906;SDS011;28552;51.146;6.576;2022-07-29T12:55:40;6.78;;;2.42;;
42906;SDS011;28552;51.146;6.576;2022-07-29T12:58:43;6.30;;;2.40;;
42906;SDS011;28552;51.146;6.576;2022-07-29T13:01:44;7.00;;;2.63;;
42906;SDS011;28552;51.146;6.576;2022-07-29T13:04:55;5.35;;;2.45;;
42906;SDS011;28552;51.146;6.576;2022-07-29T13:08:09;5.55;;;2.40;;
42906;SDS011;28552;51.146;6.576;2022-07-29T13:11:26;3.72;;;1.90;;
42906;SDS011;28552;51.146;6.576;2022-07-29T13:14:36;7.50;;;2.33;;
42906;SDS011;28552;51.146;6.576;2022-07-29T13:17:41;5.35;;;2.28;;
42906;SDS011;28552;51.146;6.576;2022-07-29T13:20:43;4.55;;;1.85;;
42906;SDS011;28552;51.146;6.576;2022-07-29T13:23:43;4.85;;;2.47;;
42906;SDS011;28552;51.146;6.576;2022-07-29T13:26:44;4.93;;;2.10;;
42906;SDS011;28552;51.146;6.576;2022-07-29T13:29:45;4.88;;;2.17;;
42906;SDS011;28552;51.146;6.576;2022-07-29T13:32:46;5.38;;;2.30;;
42906;SDS011;28552;51.146;6.576;2022-07-29T13:35:47;9.40;;;3.00;;
42906;SDS011;28552;51.146;6.576;2022-07-29T13:38:47;6.38;;;2.72;;
42906;SDS011;28552;51.146;6.576;2022-07-29T13:41:48;4.72;;;1.80;;
42906;SDS011;28552;51.146;6.576;2022-07-29T13:44:49;7.57;;;1.92;;
42906;SDS011;28552;51.146;6.576;2022-07-29T13:47:51;4.68;;;1.80;;
42906;SDS011;28552;51.146;6.576;2022-07-29T13:50:52;5.05;;;2.00;;
42906;SDS011;28552;51.146;6.576;2022-07-29T13:53:52;3.72;;;1.80;;
42906;SDS011;28552;51.146;6.576;2022-07-29T13:56:53;4.32;;;1.75;;
42906;SDS011;28552;51.146;6.576;2022-07-29T13:59:53;5.07;;;2.00;;
42906;SDS011;28552;51.146;6.576;2022-07-29T14:02:54;4.63;;;1.80;;
42906;SDS011;28552;51.146;6.576;2022-07-29T14:05:54;3.38;;;1.60;;
42906;SDS011;28552;51.146;6.576;2022-07-29T14:08:56;4.13;;;1.83;;
42906;SDS011;28552;51.146;6.576;2022-07-29T14:11:56;3.05;;;1.45;;
42906;SDS011;28552;51.146;6.576;2022-07-29T14:14:57;3.35;;;1.50;;
42906;SDS011;28552;51.146;6.576;2022-07-29T14:17:58;3.33;;;1.48;;
42906;SDS011;28552;51.146;6.576;2022-07-29T14:20:58;4.18;;;1.50;;
42906;SDS011;28552;51.146;6.576;2022-07-29T14:23:59;3.17;;;1.38;;
42906;SDS011;28552;51.146;6.576;2022-07-29T14:26:59;4.07;;;1.52;;
42906;SDS011;28552;51.146;6.576;2022-07-29T14:30:00;4.65;;;1.55;;
42906;SDS011;28552;51.146;6.576;2022-07-29T14:33:00;3.97;;;1.25;;
42906;SDS011;28552;51.146;6.576;2022-07-29T14:36:01;2.85;;;1.13;;
42906;SDS011;28552;51.146;6.576;2022-07-29T14:39:02;3.38;;;1.40;;
42906;SDS011;28552;51.146;6.576;2022-07-29T14:42:04;2.58;;;1.30;;
42906;SDS011;28552;51.146;6.576;2022-07-29T14:45:05;2.85;;;1.23;;
42906;SDS011;28552;51.146;6.576;2022-07-29T14:48:07;5.35;;;1.27;;
42906;SDS011;28552;51.146;6.576;2022-07-29T14:51:07;3.55;;;1.23;;
42906;SDS011;28552;51.146;6.576;2022-07-29T14:54:08;4.22;;;1.63;;
42906;SDS011;28552;51.146;6.576;2022-07-29T14:57:08;2.65;;;1.10;;
42906;SDS011;28552;51.146;6.576;2022-07-29T15:00:09;3.40;;;1.45;;
42906;SDS011;28552;51.146;6.576;2022-07-29T15:03:11;3.65;;;1.45;;
42906;SDS011;28552;51.146;6.576;2022-07-29T15:06:11;2.83;;;1.20;;
42906;SDS011;28552;51.146;6.576;2022-07-29T15:09:12;3.10;;;1.48;;
42906;SDS011;28552;51.146;6.576;2022-07-29T15:12:13;2.75;;;1.30;;
42906;SDS011;28552;51.146;6.576;2022-07-29T15:15:14;3.78;;;1.27;;
42906;SDS011;28552;51.146;6.576;2022-07-29T15:18:14;5.88;;;1.65;;
42906;SDS011;28552;51.146;6.576;2022-07-29T15:21:15;4.15;;;1.58;;
42906;SDS011;28552;51.146;6.576;2022-07-29T15:24:16;3.65;;;1.70;;
42906;SDS011;28552;51.146;6.576;2022-07-29T15:27:17;3.70;;;1.70;;
42906;SDS011;28552;51.146;6.576;2022-07-29T15:30:17;8.18;;;1.80;;
42906;SDS011;28552;51.146;6.576;2022-07-29T15:33:18;3.60;;;1.60;;
42906;SDS011;28552;51.146;6.576;2022-07-29T15:36:19;3.22;;;1.58;;
42906;SDS011;28552;51.146;6.576;2022-07-29T15:39:20;2.70;;;1.40;;
42906;SDS011;28552;51.146;6.576;2022-07-29T15:42:21;4.65;;;1.70;;
42906;SDS011;28552;51.146;6.576;2022-07-29T15:45:22;4.38;;;2.10;;
42906;SDS011;28552;51.146;6.576;2022-07-29T15:48:22;4.20;;;1.80;;
42906;SDS011;28552;51.146;6.576;2022-07-29T15:51:23;4.60;;;1.85;;
42906;SDS011;28552;51.146;6.576;2022-07-29T15:54:24;3.05;;;1.58;;
42906;SDS011;28552;51.146;6.576;2022-07-29T15:57:25;4.03;;;2.10;;
42906;SDS011;28552;51.146;6.576;2022-07-29T16:00:25;4.97;;;1.98;;
42906;SDS011;28552;51.146;6.576;2022-07-29T16:03:26;2.95;;;1.42;;
42906;SDS011;28552;51.146;6.576;2022-07-29T16:06:26;3.17;;;1.40;;
42906;SDS011;28552;51.146;6.576;2022-07-29T16:09:27;3.92;;;1.42;;
42906;SDS011;28552;51.146;6.576;2022-07-29T16:12:27;4.85;;;1.88;;
42906;SDS011;28552;51.146;6.576;2022-07-29T16:15:28;3.67;;;1.67;;
42906;SDS011;28552;51.146;6.576;2022-07-29T16:18:29;3.00;;;1.20;;
42906;SDS011;28552;51.146;6.576;2022-07-29T16:21:30;3.50;;;1.55;;
42906;SDS011;28552;51.146;6.576;2022-07-29T16:24:31;3.65;;;1.50;;
42906;SDS011;28552;51.146;6.576;2022-07-29T16:27:32;3.20;;;1.50;;
42906;SDS011;28552;51.146;6.576;2022-07-29T16:30:32;2.67;;;1.33;;
42906;SDS011;28552;51.146;6.576;2022-07-29T16:33:34;5.03;;;1.77;;
42906;SDS011;28552;51.146;6.576;2022-07-29T16:36:35;4.03;;;1.60;;
42906;SDS011;28552;51.146;6.576;2022-07-29T16:39:35;3.65;;;2.03;;
42906;SDS011;28552;51.146;6.576;2022-07-29T16:42:36;3.65;;;1.92;;
42906;SDS011;28552;51.146;6.576;2022-07-29T16:45:37;3.45;;;1.50;;
42906;SDS011;28552;51.146;6.576;2022-07-29T16:48:37;3.95;;;1.90;;
42906;SDS011;28552;51.146;6.576;2022-07-29T16:51:38;2.83;;;1.42;;
42906;SDS011;28552;51.146;6.576;2022-07-29T16:54:38;5.85;;;1.50;;
42906;SDS011;28552;51.146;6.576;2022-07-29T16:57:39;3.35;;;1.65;;
42906;SDS011;28552;51.146;6.576;2022-07-29T17:00:41;2.97;;;1.60;;
42906;SDS011;28552;51.146;6.576;2022-07-29T17:03:42;2.83;;;1.25;;
42906;SDS011;28552;51.146;6.576;2022-07-29T17:06:57;3.85;;;1.60;;
42906;SDS011;28552;51.146;6.576;2022-07-29T17:09:58;3.53;;;1.48;;
42906;SDS011;28552;51.146;6.576;2022-07-29T17:12:59;3.22;;;1.58;;
42906;SDS011;28552;51.146;6.576;2022-07-29T17:15:59;3.22;;;1.50;;
42906;SDS011;28552;51.146;6.576;2022-07-29T17:19:00;3.47;;;1.52;;
42906;SDS011;28552;51.146;6.576;2022-07-29T17:22:02;4.68;;;1.80;;
42906;SDS011;28552;51.146;6.576;2022-07-29T17:25:06;3.35;;;1.70;;
42906;SDS011;28552;51.146;6.576;2022-07-29T17:28:07;4.65;;;1.77;;
42906;SDS011;28552;51.146;6.576;2022-07-29T17:31:08;4.25;;;1.33;;
42906;SDS011;28552;51.146;6.576;2022-07-29T17:34:09;3.05;;;1.60;;
42906;SDS011;28552;51.146;6.576;2022-07-29T17:37:10;7.53;;;1.90;;
42906;SDS011;28552;51.146;6.576;2022-07-29T17:40:11;4.85;;;1.58;;
42906;SDS011;28552;51.146;6.576;2022-07-29T17:43:12;2.92;;;1.40;;
42906;SDS011;28552;51.146;6.576;2022-07-29T17:46:12;3.30;;;1.50;;
42906;SDS011;28552;51.146;6.576;2022-07-29T17:49:13;3.50;;;1.40;;
42906;SDS011;28552;51.146;6.576;2022-07-29T17:52:14;3.80;;;1.35;;
42906;SDS011;28552;51.146;6.576;2022-07-29T17:55:16;4.47;;;1.73;;
42906;SDS011;28552;51.146;6.576;2022-07-29T17:58:17;4.20;;;1.50;;
42906;SDS011;28552;51.146;6.576;2022-07-29T18:01:18;4.05;;;1.60;;
42906;SDS011;28552;51.146;6.576;2022-07-29T18:04:19;3.60;;;1.70;;
42906;SDS011;28552;51.146;6.576;2022-07-29T18:07:22;3.10;;;1.50;;
42906;SDS011;28552;51.146;6.576;2022-07-29T18:10:23;3.20;;;1.77;;
42906;SDS011;28552;51.146;6.576;2022-07-29T18:13:24;3.22;;;1.50;;
42906;SDS011;28552;51.146;6.576;2022-07-29T18:16:25;2.90;;;1.50;;
42906;SDS011;28552;51.146;6.576;2022-07-29T18:19:25;3.53;;;1.48;;
42906;SDS011;28552;51.146;6.576;2022-07-29T18:22:27;4.13;;;1.85;;
42906;SDS011;28552;51.146;6.576;2022-07-29T18:25:28;4.22;;;1.98;;
42906;SDS011;28552;51.146;6.576;2022-07-29T18:28:28;2.53;;;1.35;;
42906;SDS011;28552;51.146;6.576;2022-07-29T18:31:30;2.80;;;1.48;;
42906;SDS011;28552;51.146;6.576;2022-07-29T18:34:31;3.67;;;1.35;;
42906;SDS011;28552;51.146;6.576;2022-07-29T18:37:31;3.00;;;1.50;;
42906;SDS011;28552;51.146;6.576;2022-07-29T18:40:33;3.55;;;1.70;;
42906;SDS011;28552;51.146;6.576;2022-07-29T18:43:34;3.33;;;1.67;;
42906;SDS011;28552;51.146;6.576;2022-07-29T18:46:35;3.30;;;1.70;;
42906;SDS011;28552;51.146;6.576;2022-07-29T18:49:35;4.43;;;1.70;;
42906;SDS011;28552;51.146;6.576;2022-07-29T18:52:36;3.65;;;1.52;;
42906;SDS011;28552;51.146;6.576;2022-07-29T18:55:36;3.55;;;1.75;;
42906;SDS011;28552;51.146;6.576;2022-07-29T18:58:37;5.15;;;1.60;;
42906;SDS011;28552;51.146;6.576;2022-07-29T19:01:38;3.88;;;1.55;;
42906;SDS011;28552;51.146;6.576;2022-07-29T19:04:39;5.05;;;1.83;;
42906;SDS011;28552;51.146;6.576;2022-07-29T19:07:40;4.03;;;1.58;;